sensor_id;sensor_type;location;lat;lon;timestamp;pressure;altitude;pressure_sealevel;temperature;humidity
38197;BME280;26543;51.976;4.616;2023-11-19T00:00:26;60416.03;;;-140.72;100.00
38197;BME280;26543;51.976;4.616;2023-11-19T00:02:51;60424.16;;;-140.72;100.00
38197;BME280;26543;51.976;4.616;2023-11-19T00:05:17;60397.72;;;-140.72;100.00
38197;BME280;26543;51.976;4.616;2023-11-19T00:07:42;60424.16;;;-140.72;100.00
38197;BME280;26543;51.976;4.616;2023-11-19T00:10:11;60432.28;;;-140.72;100.00
38197;BME280;26543;51.976;4.616;2023-11-19T00:12:37;60454.66;;;-140.72;100.00
38197;BME280;26543;51.976;4.616;2023-11-19T00:15:03;60477.00;;;-140.72;100.00
38197;BME280;26543;51.976;4.616;2023-11-19T00:17:28;60491.25;;;-140.72;100.00
38197;BME280;26543;51.976;4.616;2023-11-19T00:19:53;60489.22;;;-140.72;100.00
38197;BME280;26543;51.976;4.616;2023-11-19T00:22:19;60517.69;;;-140.72;100.00
38197;BME280;26543;51.976;4.616;2023-11-19T00:24:46;60505.47;;;-140.72;100.00
38197;BME280;26543;51.976;4.616;2023-11-19T00:27:11;60525.81;;;-140.72;100.00
38197;BME280;26543;51.976;4.616;2023-11-19T00:29:36;60542.09;;;-140.72;100.00
38197;BME280;26543;51.976;4.616;2023-11-19T00:32:02;60468.88;;;-140.72;100.00
38197;BME280;26543;51.976;4.616;2023-11-19T00:34:27;60472.94;;;-140.72;100.00
38197;BME280;26543;51.976;4.616;2023-11-19T00:36:52;60454.66;;;-140.72;100.00
38197;BME280;26543;51.976;4.616;2023-11-19T00:39:17;60474.97;;;-140.72;100.00
38197;BME280;26543;51.976;4.616;2023-11-19T00:41:43;60462.78;;;-140.72;100.00
38197;BME280;26543;51.976;4.616;2023-11-19T00:44:08;60472.94;;;-140.72;100.00
38197;BME280;26543;51.976;4.616;2023-11-19T00:46:33;60446.53;;;-140.72;100.00
38197;BME280;26543;51.976;4.616;2023-11-19T00:48:58;60422.13;;;-140.72;100.00
38197;BME280;26543;51.976;4.616;2023-11-19T00:51:26;60413.97;;;-140.72;100.00
38197;BME280;26543;51.976;4.616;2023-11-19T00:53:51;60407.88;;;-140.72;100.00
38197;BME280;26543;51.976;4.616;2023-11-19T00:56:17;60363.16;;;-140.72;100.00
38197;BME280;26543;51.976;4.616;2023-11-19T00:58:44;60344.84;;;-140.72;100.00
38197;BME280;26543;51.976;4.616;2023-11-19T01:01:11;60306.22;;;-140.72;100.00
38197;BME280;26543;51.976;4.616;2023-11-19T01:03:36;60275.72;;;-140.72;100.00
38197;BME280;26543;51.976;4.616;2023-11-19T01:06:01;60275.72;;;-140.72;100.00
38197;BME280;26543;51.976;4.616;2023-11-19T01:08:27;60214.72;;;-140.72;100.00
38197;BME280;26543;51.976;4.616;2023-11-19T01:10:52;60192.38;;;-140.72;100.00
38197;BME280;26543;51.976;4.616;2023-11-19T01:13:19;60161.88;;;-140.72;100.00
38197;BME280;26543;51.976;4.616;2023-11-19T01:15:44;60145.59;;;-140.72;100.00
38197;BME280;26543;51.976;4.616;2023-11-19T01:18:09;60109.00;;;-140.72;100.00
38197;BME280;26543;51.976;4.616;2023-11-19T01:20:34;60084.63;;;-140.72;100.00
38197;BME280;26543;51.976;4.616;2023-11-19T01:23:00;60068.34;;;-140.72;100.00
38197;BME280;26543;51.976;4.616;2023-11-19T01:25:25;60019.56;;;-140.72;100.00
38197;BME280;26543;51.976;4.616;2023-11-19T01:27:50;60037.84;;;-140.72;100.00
38197;BME280;26543;51.976;4.616;2023-11-19T01:30:15;60031.75;;;-140.72;100.00
38197;BME280;26543;51.976;4.616;2023-11-19T01:32:40;60031.75;;;-140.72;100.00
38197;BME280;26543;51.976;4.616;2023-11-19T01:35:06;59938.25;;;-140.72;100.00
38197;BME280;26543;51.976;4.616;2023-11-19T01:37:33;59987.03;;;-140.72;100.00
38197;BME280;26543;51.976;4.616;2023-11-19T01:39:59;59970.78;;;-140.72;100.00
38197;BME280;26543;51.976;4.616;2023-11-19T01:42:25;59893.50;;;-140.72;100.00
38197;BME280;26543;51.976;4.616;2023-11-19T01:45:00;59824.41;;;-140.72;100.00
38197;BME280;26543;51.976;4.616;2023-11-19T01:47:26;59822.34;;;-140.72;100.00
38197;BME280;26543;51.976;4.616;2023-11-19T01:49:51;59755.28;;;-140.72;100.00
38197;BME280;26543;51.976;4.616;2023-11-19T01:52:17;59726.81;;;-140.72;100.00
38197;BME280;26543;51.976;4.616;2023-11-19T01:54:42;59710.56;;;-140.72;100.00
38197;BME280;26543;51.976;4.616;2023-11-19T01:57:08;59649.56;;;-140.72;100.00
38197;BME280;26543;51.976;4.616;2023-11-19T01:59:34;59651.59;;;-140.72;100.00
38197;BME280;26543;51.976;4.616;2023-11-19T02:01:59;59643.47;;;-140.72;100.00
38197;BME280;26543;51.976;4.616;2023-11-19T02:04:24;59633.31;;;-140.72;100.00
38197;BME280;26543;51.976;4.616;2023-11-19T02:06:50;59645.50;;;-140.72;100.00
38197;BME280;26543;51.976;4.616;2023-11-19T02:09:17;59619.06;;;-140.72;100.00
38197;BME280;26543;51.976;4.616;2023-11-19T02:11:44;59592.66;;;-140.72;100.00
38197;BME280;26543;51.976;4.616;2023-11-19T02:14:09;59621.09;;;-140.72;100.00
38197;BME280;26543;51.976;4.616;2023-11-19T02:16:36;59621.09;;;-140.72;100.00
38197;BME280;26543;51.976;4.616;2023-11-19T02:19:01;59649.56;;;-140.72;100.00
38197;BME280;26543;51.976;4.616;2023-11-19T02:21:26;59631.28;;;-140.72;100.00
38197;BME280;26543;51.976;4.616;2023-11-19T02:23:51;59631.28;;;-140.72;100.00
38197;BME280;26543;51.976;4.616;2023-11-19T02:28:45;59647.53;;;-140.72;100.00
38197;BME280;26543;51.976;4.616;2023-11-19T02:31:11;59635.34;;;-140.72;100.00
38197;BME280;26543;51.976;4.616;2023-11-19T02:33:39;59639.41;;;-140.72;100.00
38197;BME280;26543;51.976;4.616;2023-11-19T02:36:05;59649.56;;;-140.72;100.00
38197;BME280;26543;51.976;4.616;2023-11-19T02:38:32;59678.03;;;-140.72;100.00
38197;BME280;26543;51.976;4.616;2023-11-19T02:40:57;59641.44;;;-140.72;100.00
38197;BME280;26543;51.976;4.616;2023-11-19T02:43:22;59651.59;;;-140.72;100.00
38197;BME280;26543;51.976;4.616;2023-11-19T02:45:47;59706.50;;;-140.72;100.00
38197;BME280;26543;51.976;4.616;2023-11-19T02:48:13;59665.81;;;-140.72;100.00
38197;BME280;26543;51.976;4.616;2023-11-19T02:50:40;59659.72;;;-140.72;100.00
38197;BME280;26543;51.976;4.616;2023-11-19T02:53:06;59643.47;;;-140.72;100.00
38197;BME280;26543;51.976;4.616;2023-11-19T02:55:31;59604.84;;;-140.72;100.00
38197;BME280;26543;51.976;4.616;2023-11-19T02:58:02;59612.97;;;-140.72;100.00
38197;BME280;26543;51.976;4.616;2023-11-19T03:00:33;59598.75;;;-140.72;100.00
38197;BME280;26543;51.976;4.616;2023-11-19T03:03:05;59533.69;;;-140.72;100.00
38197;BME280;26543;51.976;4.616;2023-11-19T03:05:48;59549.97;;;-140.72;100.00
38197;BME280;26543;51.976;4.616;2023-11-19T03:08:14;59482.88;;;-140.72;100.00
38197;BME280;26543;51.976;4.616;2023-11-19T03:10:39;59458.47;;;-140.72;100.00
38197;BME280;26543;51.976;4.616;2023-11-19T03:13:04;59381.25;;;-140.72;100.00
38197;BME280;26543;51.976;4.616;2023-11-19T03:15:30;59344.66;;;-140.72;100.00
38197;BME280;26543;51.976;4.616;2023-11-19T03:17:55;59322.28;;;-140.72;100.00
38197;BME280;26543;51.976;4.616;2023-11-19T03:20:20;59269.44;;;-140.72;100.00
38197;BME280;26543;51.976;4.616;2023-11-19T03:22:46;59261.31;;;-140.72;100.00
38197;BME280;26543;51.976;4.616;2023-11-19T03:25:11;59238.97;;;-140.72;100.00
38197;BME280;26543;51.976;4.616;2023-11-19T03:27:37;59186.09;;;-140.72;100.00
38197;BME280;26543;51.976;4.616;2023-11-19T03:30:03;59157.66;;;-140.72;100.00
38197;BME280;26543;51.976;4.616;2023-11-19T03:32:30;59159.69;;;-140.72;100.00
38197;BME280;26543;51.976;4.616;2023-11-19T03:34:56;59151.56;;;-140.72;100.00
38197;BME280;26543;51.976;4.616;2023-11-19T03:37:21;59141.38;;;-140.72;100.00
38197;BME280;26543;51.976;4.616;2023-11-19T03:39:49;59157.66;;;-140.72;100.00
38197;BME280;26543;51.976;4.616;2023-11-19T03:42:14;59173.91;;;-140.72;100.00
38197;BME280;26543;51.976;4.616;2023-11-19T03:44:39;59165.78;;;-140.72;100.00
38197;BME280;26543;51.976;4.616;2023-11-19T03:47:05;59216.59;;;-140.72;100.00
38197;BME280;26543;51.976;4.616;2023-11-19T03:49:30;59238.97;;;-140.72;100.00
38197;BME280;26543;51.976;4.616;2023-11-19T03:51:56;59224.72;;;-140.72;100.00
38197;BME280;26543;51.976;4.616;2023-11-19T03:54:21;59224.72;;;-140.72;100.00
38197;BME280;26543;51.976;4.616;2023-11-19T03:56:48;59214.56;;;-140.72;100.00
38197;BME280;26543;51.976;4.616;2023-11-19T03:59:13;59234.88;;;-140.72;100.00
38197;BME280;26543;51.976;4.616;2023-11-19T04:01:40;59137.31;;;-140.72;100.00
38197;BME280;26543;51.976;4.616;2023-11-19T04:04:05;59096.66;;;-140.72;100.00
38197;BME280;26543;51.976;4.616;2023-11-19T04:06:31;59104.81;;;-140.72;100.00
38197;BME280;26543;51.976;4.616;2023-11-19T04:08:56;59043.81;;;-140.72;100.00
38197;BME280;26543;51.976;4.616;2023-11-19T04:11:21;59058.06;;;-140.72;100.00
38197;BME280;26543;51.976;4.616;2023-11-19T04:13:47;58982.84;;;-140.72;100.00
38197;BME280;26543;51.976;4.616;2023-11-19T04:16:12;58925.94;;;-140.72;100.00
38197;BME280;26543;51.976;4.616;2023-11-19T04:18:37;58907.66;;;-140.72;100.00
38197;BME280;26543;51.976;4.616;2023-11-19T04:21:05;58893.44;;;-140.72;100.00
38197;BME280;26543;51.976;4.616;2023-11-19T04:23:31;58885.28;;;-140.72;100.00
38197;BME280;26543;51.976;4.616;2023-11-19T04:25:56;58834.47;;;-140.72;100.00
38197;BME280;26543;51.976;4.616;2023-11-19T04:28:21;58895.47;;;-140.72;100.00
38197;BME280;26543;51.976;4.616;2023-11-19T04:30:47;58812.13;;;-140.72;100.00
38197;BME280;26543;51.976;4.616;2023-11-19T04:33:12;58787.75;;;-140.72;100.00
38197;BME280;26543;51.976;4.616;2023-11-19T04:35:37;58799.94;;;-140.72;100.00
38197;BME280;26543;51.976;4.616;2023-11-19T04:38:02;58791.81;;;-140.72;100.00
38197;BME280;26543;51.976;4.616;2023-11-19T04:40:28;58763.34;;;-140.72;100.00
38197;BME280;26543;51.976;4.616;2023-11-19T04:42:53;58732.88;;;-140.72;100.00
38197;BME280;26543;51.976;4.616;2023-11-19T04:45:18;58700.34;;;-140.72;100.00
38197;BME280;26543;51.976;4.616;2023-11-19T04:47:45;58641.41;;;-140.72;100.00
38197;BME280;26543;51.976;4.616;2023-11-19T04:50:10;58694.25;;;-140.72;100.00
38197;BME280;26543;51.976;4.616;2023-11-19T04:52:38;58631.25;;;-140.72;100.00
38197;BME280;26543;51.976;4.616;2023-11-19T04:55:09;58649.53;;;-140.72;100.00
38197;BME280;26543;51.976;4.616;2023-11-19T04:57:36;58659.69;;;-140.72;100.00
38197;BME280;26543;51.976;4.616;2023-11-19T05:00:01;58673.94;;;-140.72;100.00
38197;BME280;26543;51.976;4.616;2023-11-19T05:02:29;58657.66;;;-140.72;100.00
38197;BME280;26543;51.976;4.616;2023-11-19T05:04:55;58692.22;;;-140.72;100.00
38197;BME280;26543;51.976;4.616;2023-11-19T05:07:20;58710.50;;;-140.72;100.00
38197;BME280;26543;51.976;4.616;2023-11-19T05:09:45;58694.25;;;-140.72;100.00
38197;BME280;26543;51.976;4.616;2023-11-19T05:12:10;58702.38;;;-140.72;100.00
38197;BME280;26543;51.976;4.616;2023-11-19T05:14:37;58631.25;;;-140.72;100.00
38197;BME280;26543;51.976;4.616;2023-11-19T05:17:02;58663.75;;;-140.72;100.00
38197;BME280;26543;51.976;4.616;2023-11-19T05:19:27;58641.41;;;-140.72;100.00
38197;BME280;26543;51.976;4.616;2023-11-19T05:21:53;58655.63;;;-140.72;100.00
38197;BME280;26543;51.976;4.616;2023-11-19T05:24:18;58706.44;;;-140.72;100.00
38197;BME280;26543;51.976;4.616;2023-11-19T05:26:44;58720.66;;;-140.72;100.00
38197;BME280;26543;51.976;4.616;2023-11-19T05:29:09;58757.25;;;-140.72;100.00
38197;BME280;26543;51.976;4.616;2023-11-19T05:31:34;58777.56;;;-140.72;100.00
38197;BME280;26543;51.976;4.616;2023-11-19T05:34:00;58785.72;;;-140.72;100.00
38197;BME280;26543;51.976;4.616;2023-11-19T05:36:25;58797.91;;;-140.72;100.00
38197;BME280;26543;51.976;4.616;2023-11-19T05:38:50;58795.88;;;-140.72;100.00
38197;BME280;26543;51.976;4.616;2023-11-19T05:41:15;58816.19;;;-140.72;100.00
38197;BME280;26543;51.976;4.616;2023-11-19T05:43:40;58810.09;;;-140.72;100.00
38197;BME280;26543;51.976;4.616;2023-11-19T05:46:06;58856.84;;;-140.72;100.00
38197;BME280;26543;51.976;4.616;2023-11-19T05:48:31;58840.59;;;-140.72;100.00
38197;BME280;26543;51.976;4.616;2023-11-19T05:50:57;58848.72;;;-140.72;100.00
38197;BME280;26543;51.976;4.616;2023-11-19T05:53:22;58804.00;;;-140.72;100.00
38197;BME280;26543;51.976;4.616;2023-11-19T05:55:47;58765.38;;;-140.72;100.00
38197;BME280;26543;51.976;4.616;2023-11-19T05:58:22;58763.34;;;-140.72;100.00
38197;BME280;26543;51.976;4.616;2023-11-19T06:00:47;58728.81;;;-140.72;100.00
38197;BME280;26543;51.976;4.616;2023-11-19T06:03:13;58678.00;;;-140.72;100.00
38197;BME280;26543;51.976;4.616;2023-11-19T06:05:38;58684.09;;;-140.72;100.00
38197;BME280;26543;51.976;4.616;2023-11-19T06:08:03;58694.25;;;-140.72;100.00
38197;BME280;26543;51.976;4.616;2023-11-19T06:10:29;58673.94;;;-140.72;100.00
38197;BME280;26543;51.976;4.616;2023-11-19T06:12:59;58627.19;;;-140.72;100.00
38197;BME280;26543;51.976;4.616;2023-11-19T06:15:25;58684.09;;;-140.72;100.00
38197;BME280;26543;51.976;4.616;2023-11-19T06:17:50;58641.41;;;-140.72;100.00
38197;BME280;26543;51.976;4.616;2023-11-19T06:20:15;58600.75;;;-140.72;100.00
38197;BME280;26543;51.976;4.616;2023-11-19T06:22:42;58570.28;;;-140.72;100.00
38197;BME280;26543;51.976;4.616;2023-11-19T06:25:08;58554.03;;;-140.72;100.00
38197;BME280;26543;51.976;4.616;2023-11-19T06:27:33;58517.44;;;-140.72;100.00
38197;BME280;26543;51.976;4.616;2023-11-19T06:29:59;58541.81;;;-140.72;100.00
38197;BME280;26543;51.976;4.616;2023-11-19T06:32:24;58517.44;;;-140.72;100.00
38197;BME280;26543;51.976;4.616;2023-11-19T06:34:50;58529.63;;;-140.72;100.00
38197;BME280;26543;51.976;4.616;2023-11-19T06:37:15;58529.63;;;-140.72;100.00
38197;BME280;26543;51.976;4.616;2023-11-19T06:39:40;58539.78;;;-140.72;100.00
38197;BME280;26543;51.976;4.616;2023-11-19T06:42:05;58535.72;;;-140.72;100.00
38197;BME280;26543;51.976;4.616;2023-11-19T06:44:31;58495.09;;;-140.72;100.00
38197;BME280;26543;51.976;4.616;2023-11-19T06:46:56;58491.03;;;-140.72;100.00
38197;BME280;26543;51.976;4.616;2023-11-19T06:49:21;58446.31;;;-140.72;100.00
38197;BME280;26543;51.976;4.616;2023-11-19T06:51:46;58486.97;;;-140.72;100.00
38197;BME280;26543;51.976;4.616;2023-11-19T06:54:11;58462.56;;;-140.72;100.00
38197;BME280;26543;51.976;4.616;2023-11-19T06:56:37;58499.16;;;-140.72;100.00
38197;BME280;26543;51.976;4.616;2023-11-19T06:59:02;58499.16;;;-140.72;100.00
38197;BME280;26543;51.976;4.616;2023-11-19T07:01:27;58458.50;;;-140.72;100.00
38197;BME280;26543;51.976;4.616;2023-11-19T07:03:53;58442.25;;;-140.72;100.00
38197;BME280;26543;51.976;4.616;2023-11-19T07:06:18;58460.53;;;-140.72;100.00
38197;BME280;26543;51.976;4.616;2023-11-19T07:08:43;58519.47;;;-140.72;100.00
38197;BME280;26543;51.976;4.616;2023-11-19T07:11:09;58511.34;;;-140.72;100.00
38197;BME280;26543;51.976;4.616;2023-11-19T07:13:36;58529.63;;;-140.72;100.00
38197;BME280;26543;51.976;4.616;2023-11-19T07:16:01;58478.81;;;-140.72;100.00
38197;BME280;26543;51.976;4.616;2023-11-19T07:18:27;58491.03;;;-140.72;100.00
38197;BME280;26543;51.976;4.616;2023-11-19T07:20:52;58525.56;;;-140.72;100.00
38197;BME280;26543;51.976;4.616;2023-11-19T07:23:18;58523.53;;;-140.72;100.00
38197;BME280;26543;51.976;4.616;2023-11-19T07:25:43;58545.88;;;-140.72;100.00
38197;BME280;26543;51.976;4.616;2023-11-19T07:28:11;58519.47;;;-140.72;100.00
38197;BME280;26543;51.976;4.616;2023-11-19T07:30:37;58491.03;;;-140.72;100.00
38197;BME280;26543;51.976;4.616;2023-11-19T07:33:02;58470.69;;;-140.72;100.00
38197;BME280;26543;51.976;4.616;2023-11-19T07:35:29;58468.66;;;-140.72;100.00
38197;BME280;26543;51.976;4.616;2023-11-19T07:37:55;58482.88;;;-140.72;100.00
38197;BME280;26543;51.976;4.616;2023-11-19T07:40:20;58438.19;;;-140.72;100.00
38197;BME280;26543;51.976;4.616;2023-11-19T07:42:46;58448.34;;;-140.72;100.00
38197;BME280;26543;51.976;4.616;2023-11-19T07:45:11;58499.16;;;-140.72;100.00
38197;BME280;26543;51.976;4.616;2023-11-19T07:47:36;58474.75;;;-140.72;100.00
38197;BME280;26543;51.976;4.616;2023-11-19T07:50:01;58493.06;;;-140.72;100.00
38197;BME280;26543;51.976;4.616;2023-11-19T07:52:27;58456.47;;;-140.72;100.00
38197;BME280;26543;51.976;4.616;2023-11-19T07:54:53;58438.19;;;-140.72;100.00
38197;BME280;26543;51.976;4.616;2023-11-19T07:57:18;58421.94;;;-140.72;100.00
38197;BME280;26543;51.976;4.616;2023-11-19T07:59:45;58401.59;;;-140.72;100.00
38197;BME280;26543;51.976;4.616;2023-11-19T08:02:10;58381.28;;;-140.72;100.00
38197;BME280;26543;51.976;4.616;2023-11-19T08:04:35;58381.28;;;-140.72;100.00
38197;BME280;26543;51.976;4.616;2023-11-19T08:07:00;58352.84;;;-140.72;100.00
38197;BME280;26543;51.976;4.616;2023-11-19T08:09:25;58334.53;;;-140.72;100.00
38197;BME280;26543;51.976;4.616;2023-11-19T08:11:51;58330.47;;;-140.72;100.00
38197;BME280;26543;51.976;4.616;2023-11-19T08:14:16;58328.44;;;-140.72;100.00
38197;BME280;26543;51.976;4.616;2023-11-19T08:16:41;58255.28;;;-140.72;100.00
38197;BME280;26543;51.976;4.616;2023-11-19T08:19:06;58218.72;;;-140.72;100.00
38197;BME280;26543;51.976;4.616;2023-11-19T08:21:31;58121.16;;;-140.72;100.00
38197;BME280;26543;51.976;4.616;2023-11-19T08:23:57;58064.28;;;-140.72;100.00
38197;BME280;26543;51.976;4.616;2023-11-19T08:26:23;58027.69;;;-140.72;100.00
38197;BME280;26543;51.976;4.616;2023-11-19T08:28:49;57954.53;;;-140.72;100.00
38197;BME280;26543;51.976;4.616;2023-11-19T08:31:14;57928.13;;;-140.72;100.00
38197;BME280;26543;51.976;4.616;2023-11-19T08:33:39;57913.91;;;-140.72;100.00
38197;BME280;26543;51.976;4.616;2023-11-19T08:36:05;57828.56;;;-140.72;100.00
38197;BME280;26543;51.976;4.616;2023-11-19T08:38:31;57830.59;;;-140.72;100.00
38197;BME280;26543;51.976;4.616;2023-11-19T08:40:56;57789.97;;;-140.72;100.00
38197;BME280;26543;51.976;4.616;2023-11-19T08:43:27;57743.22;;;-140.72;100.00
38197;BME280;26543;51.976;4.616;2023-11-19T08:45:53;57739.16;;;-140.72;100.00
38197;BME280;26543;51.976;4.616;2023-11-19T08:48:18;57716.81;;;-140.72;100.00
38197;BME280;26543;51.976;4.616;2023-11-19T08:50:43;57731.03;;;-140.72;100.00
38197;BME280;26543;51.976;4.616;2023-11-19T08:53:09;57761.50;;;-140.72;100.00
38197;BME280;26543;51.976;4.616;2023-11-19T08:55:34;57777.78;;;-140.72;100.00
38197;BME280;26543;51.976;4.616;2023-11-19T08:58:00;57852.94;;;-140.72;100.00
38197;BME280;26543;51.976;4.616;2023-11-19T09:00:26;57891.56;;;-140.72;100.00
38197;BME280;26543;51.976;4.616;2023-11-19T09:02:51;57897.66;;;-140.72;100.00
38197;BME280;26543;51.976;4.616;2023-11-19T09:05:16;57905.78;;;-140.72;100.00
38197;BME280;26543;51.976;4.616;2023-11-19T09:07:41;57883.44;;;-140.72;100.00
38197;BME280;26543;51.976;4.616;2023-11-19T09:10:07;57848.88;;;-140.72;100.00
38197;BME280;26543;51.976;4.616;2023-11-19T09:12:33;57840.75;;;-140.72;100.00
38197;BME280;26543;51.976;4.616;2023-11-19T09:14:58;57909.84;;;-140.72;100.00
38197;BME280;26543;51.976;4.616;2023-11-19T09:17:24;57854.97;;;-140.72;100.00
38197;BME280;26543;51.976;4.616;2023-11-19T09:19:49;57942.34;;;-140.72;100.00
38197;BME280;26543;51.976;4.616;2023-11-19T09:22:14;57905.78;;;-140.72;100.00
38197;BME280;26543;51.976;4.616;2023-11-19T09:24:39;57930.16;;;-140.72;100.00
38197;BME280;26543;51.976;4.616;2023-11-19T09:27:04;57966.72;;;-140.72;100.00
38197;BME280;26543;51.976;4.616;2023-11-19T09:29:33;57926.09;;;-140.72;100.00
38197;BME280;26543;51.976;4.616;2023-11-19T09:31:58;57897.66;;;-140.72;100.00
38197;BME280;26543;51.976;4.616;2023-11-19T09:34:23;57863.09;;;-140.72;100.00
38197;BME280;26543;51.976;4.616;2023-11-19T09:36:48;57822.47;;;-140.72;100.00
38197;BME280;26543;51.976;4.616;2023-11-19T09:39:14;57759.47;;;-140.72;100.00
38197;BME280;26543;51.976;4.616;2023-11-19T09:41:43;57682.28;;;-140.72;100.00
38197;BME280;26543;51.976;4.616;2023-11-19T09:44:09;57615.22;;;-140.72;100.00
38197;BME280;26543;51.976;4.616;2023-11-19T09:46:36;57588.81;;;-140.72;100.00
38197;BME280;26543;51.976;4.616;2023-11-19T09:49:02;57582.72;;;-140.72;100.00
38197;BME280;26543;51.976;4.616;2023-11-19T09:51:29;57601.00;;;-140.72;100.00
38197;BME280;26543;51.976;4.616;2023-11-19T09:53:55;57580.69;;;-140.72;100.00
38197;BME280;26543;51.976;4.616;2023-11-19T09:56:20;57564.44;;;-140.72;100.00
38197;BME280;26543;51.976;4.616;2023-11-19T09:58:45;57499.41;;;-140.72;100.00
38197;BME280;26543;51.976;4.616;2023-11-19T10:01:11;57357.19;;;-140.72;100.00
38197;BME280;26543;51.976;4.616;2023-11-19T10:03:37;57310.47;;;-140.72;100.00
38197;BME280;26543;51.976;4.616;2023-11-19T10:06:07;57194.66;;;-140.72;100.00
38197;BME280;26543;51.976;4.616;2023-11-19T10:08:34;57121.53;;;-140.72;100.00
38197;BME280;26543;51.976;4.616;2023-11-19T10:10:59;57113.41;;;-140.72;100.00
38197;BME280;26543;51.976;4.616;2023-11-19T10:13:28;57074.81;;;-140.72;100.00
38197;BME280;26543;51.976;4.616;2023-11-19T10:15:53;57032.13;;;-140.72;100.00
38197;BME280;26543;51.976;4.616;2023-11-19T10:18:23;56956.97;;;-140.72;100.00
38197;BME280;26543;51.976;4.616;2023-11-19T10:20:48;56961.03;;;-140.72;100.00
38197;BME280;26543;51.976;4.616;2023-11-19T10:23:14;56973.22;;;-140.72;100.00
38197;BME280;26543;51.976;4.616;2023-11-19T10:25:39;56926.50;;;-140.72;100.00
38197;BME280;26543;51.976;4.616;2023-11-19T10:28:04;56924.47;;;-140.72;100.00
38197;BME280;26543;51.976;4.616;2023-11-19T10:30:30;56885.88;;;-140.72;100.00
38197;BME280;26543;51.976;4.616;2023-11-19T10:33:05;56855.41;;;-140.72;100.00
38197;BME280;26543;51.976;4.616;2023-11-19T10:35:31;56820.88;;;-140.72;100.00
38197;BME280;26543;51.976;4.616;2023-11-19T10:37:58;56812.75;;;-140.72;100.00
38197;BME280;26543;51.976;4.616;2023-11-19T10:40:23;56829.00;;;-140.72;100.00
38197;BME280;26543;51.976;4.616;2023-11-19T10:43:01;56745.72;;;-140.72;100.00
38197;BME280;26543;51.976;4.616;2023-11-19T10:45:26;56824.94;;;-140.72;100.00
38197;BME280;26543;51.976;4.616;2023-11-19T10:47:51;56839.16;;;-140.72;100.00
38197;BME280;26543;51.976;4.616;2023-11-19T10:50:17;56857.44;;;-140.72;100.00
38197;BME280;26543;51.976;4.616;2023-11-19T10:52:43;56908.22;;;-140.72;100.00
38197;BME280;26543;51.976;4.616;2023-11-19T10:55:09;56938.69;;;-140.72;100.00
38197;BME280;26543;51.976;4.616;2023-11-19T10:57:36;57001.66;;;-140.72;100.00
38197;BME280;26543;51.976;4.616;2023-11-19T11:00:02;57066.69;;;-140.72;100.00
38197;BME280;26543;51.976;4.616;2023-11-19T11:02:35;57196.69;;;-140.72;100.00
38197;BME280;26543;51.976;4.616;2023-11-19T11:05:04;57288.13;;;-140.72;100.00
38197;BME280;26543;51.976;4.616;2023-11-19T11:07:30;57355.16;;;-140.72;100.00
38197;BME280;26543;51.976;4.616;2023-11-19T11:09:56;57391.72;;;-140.72;100.00
38197;BME280;26543;51.976;4.616;2023-11-19T11:12:22;57389.69;;;-140.72;100.00
38197;BME280;26543;51.976;4.616;2023-11-19T11:14:49;57308.44;;;-140.72;100.00
38197;BME280;26543;51.976;4.616;2023-11-19T11:17:15;57318.59;;;-140.72;100.00
38197;BME280;26543;51.976;4.616;2023-11-19T11:19:42;57342.97;;;-140.72;100.00
38197;BME280;26543;51.976;4.616;2023-11-19T11:22:08;57359.22;;;-140.72;100.00
38197;BME280;26543;51.976;4.616;2023-11-19T11:24:48;57263.72;;;-140.72;100.00
38197;BME280;26543;51.976;4.616;2023-11-19T11:32:49;57389.69;;;-140.72;100.00
38197;BME280;26543;51.976;4.616;2023-11-19T11:37:58;57225.13;;;-140.72;100.00
38197;BME280;26543;51.976;4.616;2023-11-19T11:40:25;57239.34;;;-140.72;100.00
38197;BME280;26543;51.976;4.616;2023-11-19T11:42:51;57166.22;;;-140.72;100.00
38197;BME280;26543;51.976;4.616;2023-11-19T11:45:17;57178.41;;;-140.72;100.00
38197;BME280;26543;51.976;4.616;2023-11-19T11:50:08;57101.22;;;-140.72;100.00
38197;BME280;26543;51.976;4.616;2023-11-19T11:52:34;56954.94;;;-140.72;100.00
38197;BME280;26543;51.976;4.616;2023-11-19T11:55:04;56930.56;;;-140.72;100.00
38197;BME280;26543;51.976;4.616;2023-11-19T11:57:33;56808.69;;;-140.72;100.00
38197;BME280;26543;51.976;4.616;2023-11-19T12:00:01;56715.25;;;-140.72;100.00
38197;BME280;26543;51.976;4.616;2023-11-19T12:02:28;56709.16;;;-140.72;100.00
38197;BME280;26543;51.976;4.616;2023-11-19T12:04:53;56613.66;;;-140.72;100.00
38197;BME280;26543;51.976;4.616;2023-11-19T12:07:19;56491.78;;;-140.72;100.00
38197;BME280;26543;51.976;4.616;2023-11-19T12:09:50;56520.22;;;-140.72;100.00
38197;BME280;26543;51.976;4.616;2023-11-19T12:12:17;56501.94;;;-140.72;100.00
38197;BME280;26543;51.976;4.616;2023-11-19T12:15:04;56434.94;;;-140.72;100.00
38197;BME280;26543;51.976;4.616;2023-11-19T12:20:03;56443.06;;;-140.72;100.00
38197;BME280;26543;51.976;4.616;2023-11-19T12:22:30;56430.88;;;-140.72;100.00
38197;BME280;26543;51.976;4.616;2023-11-19T12:24:55;56398.38;;;-140.72;100.00
38197;BME280;26543;51.976;4.616;2023-11-19T12:27:21;56394.31;;;-140.72;100.00
38197;BME280;26543;51.976;4.616;2023-11-19T12:29:49;56418.69;;;-140.72;100.00
38197;BME280;26543;51.976;4.616;2023-11-19T12:32:15;56400.41;;;-140.72;100.00
38197;BME280;26543;51.976;4.616;2023-11-19T12:34:40;56467.44;;;-140.72;100.00
38197;BME280;26543;51.976;4.616;2023-11-19T12:37:06;56487.72;;;-140.72;100.00
38197;BME280;26543;51.976;4.616;2023-11-19T12:39:31;56508.03;;;-140.72;100.00